createdAt,value
2017-10-26T00:00:28.273Z,14.43
2017-10-26T00:02:55.874Z,15.48
2017-10-26T00:05:24.202Z,13.95
2017-10-26T00:07:51.772Z,15.40
2017-10-26T00:10:19.368Z,14.90
2017-10-26T00:12:46.961Z,15.18
2017-10-26T00:15:14.518Z,15.60
2017-10-26T00:17:42.193Z,15.95
2017-10-26T00:20:09.715Z,16.42
2017-10-26T00:22:37.308Z,14.60
2017-10-26T00:25:04.878Z,16.77
2017-10-26T00:27:32.480Z,17.40
2017-10-26T00:30:00.080Z,17.58
2017-10-26T00:32:27.671Z,16.30
2017-10-26T00:34:55.264Z,14.32
2017-10-26T00:37:23.628Z,14.50
2017-10-26T00:39:51.231Z,16.60
2017-10-26T00:42:18.844Z,17.45
2017-10-26T00:44:46.461Z,16.58
2017-10-26T00:47:14.052Z,18.05
2017-10-26T00:49:41.648Z,17.10
2017-10-26T00:52:09.254Z,17.65
2017-10-26T00:54:37.616Z,15.20
2017-10-26T00:57:05.244Z,16.40
2017-10-26T00:59:32.914Z,15.70
2017-10-26T01:02:00.546Z,17.17
2017-10-26T01:04:28.190Z,15.82
2017-10-26T01:06:55.803Z,17.15
2017-10-26T01:09:23.429Z,15.35
2017-10-26T01:11:51.042Z,15.65
2017-10-26T01:14:18.636Z,16.65
2017-10-26T01:16:46.246Z,15.95
2017-10-26T01:19:13.869Z,15.95
2017-10-26T01:21:41.562Z,15.73
2017-10-26T01:24:09.911Z,14.87
2017-10-26T01:26:37.535Z,17.10
2017-10-26T01:29:05.116Z,18.45
2017-10-26T01:31:32.733Z,16.58
2017-10-26T01:34:00.350Z,17.58
2017-10-26T01:36:27.975Z,17.02
2017-10-26T01:38:55.589Z,16.45
2017-10-26T01:41:23.171Z,17.12
2017-10-26T01:43:50.805Z,18.27
2017-10-26T01:46:18.398Z,17.65
2017-10-26T01:48:45.943Z,15.45
2017-10-26T01:51:13.559Z,15.00
2017-10-26T01:53:41.179Z,15.95
2017-10-26T01:56:08.799Z,15.95
2017-10-26T01:58:36.427Z,17.27
2017-10-26T02:01:04.012Z,17.30
2017-10-26T02:03:31.642Z,16.80
2017-10-26T02:05:59.277Z,15.18
2017-10-26T02:08:26.951Z,16.48
2017-10-26T02:10:55.354Z,16.02
2017-10-26T02:13:22.998Z,16.48
2017-10-26T02:15:50.614Z,15.98
2017-10-26T02:18:18.249Z,15.50
2017-10-26T02:20:45.870Z,15.88
2017-10-26T02:23:13.508Z,15.65
2017-10-26T02:25:41.152Z,14.55
2017-10-26T02:28:08.744Z,16.12
2017-10-26T02:30:57.811Z,14.68
2017-10-26T02:33:25.434Z,14.40
2017-10-26T02:35:53.051Z,17.08
2017-10-26T02:38:20.664Z,17.40
2017-10-26T02:40:48.280Z,15.02
2017-10-26T02:43:15.890Z,16.50
2017-10-26T02:45:43.515Z,15.98
2017-10-26T02:48:11.146Z,17.12
2017-10-26T02:50:38.784Z,18.20
2017-10-26T02:53:06.361Z,18.92
2017-10-26T02:55:34.750Z,20.90
2017-10-26T02:58:03.195Z,18.20
2017-10-26T03:00:30.803Z,19.83
2017-10-26T03:02:58.431Z,19.15
2017-10-26T03:05:26.062Z,19.73
2017-10-26T03:07:53.738Z,18.95
2017-10-26T03:10:21.350Z,18.85
2017-10-26T03:12:48.972Z,19.58
2017-10-26T03:15:16.555Z,19.05
2017-10-26T03:17:44.983Z,20.65
2017-10-26T03:20:12.597Z,19.92
2017-10-26T03:22:40.167Z,18.73
2017-10-26T03:25:08.542Z,19.90
2017-10-26T03:27:36.926Z,18.05
2017-10-26T03:30:05.299Z,17.05
2017-10-26T03:32:33.679Z,16.95
2017-10-26T03:35:02.072Z,19.75
2017-10-26T03:37:29.659Z,18.85
2017-10-26T03:39:57.266Z,19.85
2017-10-26T03:42:25.090Z,19.30
2017-10-26T03:44:52.709Z,20.45
2017-10-26T03:47:20.340Z,19.87
2017-10-26T03:49:47.951Z,19.15
2017-10-26T03:52:15.562Z,21.15
2017-10-26T03:54:43.131Z,17.90
2017-10-26T03:57:10.742Z,18.48
2017-10-26T03:59:38.352Z,18.80
2017-10-26T04:02:05.972Z,19.48
2017-10-26T04:04:33.584Z,18.35
2017-10-26T04:07:01.200Z,17.70
2017-10-26T04:09:28.814Z,19.17
2017-10-26T04:11:56.438Z,19.02
2017-10-26T04:14:24.013Z,19.15
2017-10-26T04:16:51.665Z,17.55
2017-10-26T04:19:19.278Z,19.08
2017-10-26T04:21:46.902Z,18.55
2017-10-26T04:24:14.518Z,17.85
2017-10-26T04:26:42.149Z,19.85
2017-10-26T04:29:09.734Z,17.98
2017-10-26T04:31:37.353Z,17.62
2017-10-26T04:34:04.986Z,20.70
2017-10-26T04:36:32.647Z,17.85
2017-10-26T04:39:00.272Z,20.50
2017-10-26T04:41:27.878Z,17.10
2017-10-26T04:43:55.487Z,19.50
2017-10-26T04:46:23.086Z,20.05
2017-10-26T04:48:50.702Z,17.90
2017-10-26T04:51:18.275Z,18.30
2017-10-26T04:53:45.893Z,19.90
2017-10-26T04:56:13.542Z,19.90
2017-10-26T04:58:41.162Z,18.48
2017-10-26T05:01:08.797Z,18.05
2017-10-26T05:03:36.411Z,18.00
2017-10-26T05:06:03.984Z,19.95
2017-10-26T05:08:31.605Z,19.23
2017-10-26T05:10:59.263Z,22.10
2017-10-26T05:13:27.095Z,22.20
2017-10-26T05:15:54.707Z,21.40
2017-10-26T05:18:22.785Z,20.90
2017-10-26T05:20:52.082Z,18.35
2017-10-26T05:23:20.060Z,19.45
2017-10-26T05:25:48.209Z,20.35
2017-10-26T05:28:16.592Z,20.05
2017-10-26T05:30:44.786Z,19.52
2017-10-26T05:33:13.114Z,18.02
2017-10-26T05:35:41.505Z,18.70
2017-10-26T05:38:10.522Z,17.48
2017-10-26T05:40:38.754Z,21.00
2017-10-26T05:43:07.246Z,20.92
2017-10-26T05:45:35.513Z,19.05
2017-10-26T05:48:03.694Z,18.50
2017-10-26T05:50:31.819Z,20.92
2017-10-26T05:52:59.993Z,20.95
2017-10-26T05:55:28.132Z,20.77
2017-10-26T05:57:56.222Z,22.98
2017-10-26T06:00:24.275Z,21.42
2017-10-26T06:02:52.428Z,23.30
2017-10-26T06:05:21.376Z,23.90
2017-10-26T06:07:49.452Z,22.37
2017-10-26T06:10:17.777Z,23.15
2017-10-26T06:12:45.951Z,22.40
2017-10-26T06:15:14.202Z,21.65
2017-10-26T06:17:42.333Z,21.40
2017-10-26T06:20:10.498Z,23.15
2017-10-26T06:22:39.595Z,20.55
2017-10-26T06:25:08.457Z,24.35
2017-10-26T06:27:36.660Z,25.88
2017-10-26T06:30:05.411Z,21.85
2017-10-26T06:32:33.524Z,23.17
2017-10-26T06:35:01.432Z,25.80
2017-10-26T06:37:29.679Z,26.15
2017-10-26T06:39:57.913Z,27.40
2017-10-26T06:42:26.185Z,27.23
2017-10-26T06:44:54.521Z,27.00
2017-10-26T06:47:23.782Z,26.42
2017-10-26T06:49:52.083Z,26.05
2017-10-26T06:52:20.479Z,28.67
2017-10-26T06:54:48.700Z,26.62
2017-10-26T06:57:17.847Z,28.38
2017-10-26T06:59:46.099Z,28.05
2017-10-26T07:02:14.990Z,27.73
2017-10-26T07:04:43.954Z,25.92
2017-10-26T07:07:12.184Z,27.33
2017-10-26T07:09:40.441Z,28.08
2017-10-26T07:12:08.940Z,27.65
2017-10-26T07:14:37.154Z,25.20
2017-10-26T07:17:05.327Z,24.77
2017-10-26T07:19:33.546Z,25.80
2017-10-26T07:22:01.792Z,26.98
2017-10-26T07:24:30.775Z,23.90
2017-10-26T07:26:59.112Z,25.58
2017-10-26T07:29:27.367Z,28.73
2017-10-26T07:31:55.709Z,27.62
2017-10-26T07:34:23.922Z,28.50
2017-10-26T07:36:58.913Z,26.58
2017-10-26T07:39:27.969Z,28.50
2017-10-26T07:41:57.113Z,29.85
2017-10-26T07:44:25.453Z,26.52
2017-10-26T07:46:56.996Z,28.48
2017-10-26T07:49:25.145Z,27.75
2017-10-26T07:51:55.047Z,30.08
2017-10-26T07:54:23.361Z,32.30
2017-10-26T07:56:51.537Z,27.90
2017-10-26T07:59:19.576Z,31.52
2017-10-26T08:01:47.785Z,33.05
2017-10-26T08:04:15.957Z,29.70
2017-10-26T08:06:44.175Z,30.77
2017-10-26T08:09:12.447Z,28.62
2017-10-26T08:11:40.656Z,28.52
2017-10-26T08:14:08.755Z,28.73
2017-10-26T08:16:37.091Z,29.42
2017-10-26T08:19:05.307Z,26.77
2017-10-26T08:21:33.383Z,30.90
2017-10-26T08:24:01.594Z,28.50
2017-10-26T08:26:29.836Z,28.35
2017-10-26T08:28:58.148Z,27.90
2017-10-26T08:31:26.433Z,29.42
2017-10-26T08:33:54.664Z,28.08
2017-10-26T08:36:22.989Z,28.17
2017-10-26T08:38:51.663Z,28.27
2017-10-26T08:41:19.853Z,28.02
2017-10-26T08:43:47.979Z,27.85
2017-10-26T08:46:16.354Z,30.80
2017-10-26T08:48:44.530Z,30.37
2017-10-26T08:51:12.690Z,27.45
2017-10-26T08:53:40.885Z,28.58
2017-10-26T08:56:09.254Z,28.70
2017-10-26T08:58:37.585Z,27.90
2017-10-26T09:01:05.889Z,28.17
2017-10-26T09:03:34.188Z,28.85
2017-10-26T09:06:02.297Z,31.25
2017-10-26T09:08:30.693Z,26.90
2017-10-26T09:11:00.047Z,25.77
2017-10-26T09:13:28.248Z,25.73
2017-10-26T09:15:56.393Z,26.15
2017-10-26T09:18:24.562Z,28.65
2017-10-26T09:20:52.829Z,25.55
2017-10-26T09:23:22.178Z,25.50
2017-10-26T09:25:51.476Z,27.95
2017-10-26T09:28:19.615Z,25.55
2017-10-26T09:30:48.407Z,25.15
2017-10-26T09:33:22.517Z,23.73
2017-10-26T09:35:51.717Z,24.23
2017-10-26T09:38:19.968Z,23.87
2017-10-26T09:40:48.922Z,23.25
2017-10-26T09:43:17.141Z,24.52
2017-10-26T09:45:45.366Z,21.40
2017-10-26T09:48:13.651Z,19.00
2017-10-26T09:50:42.579Z,19.95
2017-10-26T09:53:10.826Z,20.40
2017-10-26T09:55:39.025Z,19.77
2017-10-26T09:58:07.230Z,21.00
2017-10-26T10:00:36.370Z,20.33
2017-10-26T10:03:04.537Z,20.88
2017-10-26T10:05:32.823Z,18.80
2017-10-26T10:08:00.949Z,20.62
2017-10-26T10:10:29.200Z,20.73
2017-10-26T10:12:57.325Z,20.80
2017-10-26T10:15:25.472Z,19.60
2017-10-26T10:17:54.471Z,19.27
2017-10-26T10:20:24.745Z,20.25
2017-10-26T10:22:53.827Z,19.35
2017-10-26T10:25:22.113Z,21.52
2017-10-26T10:27:50.288Z,18.42
2017-10-26T10:30:18.514Z,18.37
2017-10-26T10:32:47.791Z,18.42
2017-10-26T10:35:15.986Z,16.73
2017-10-26T10:37:44.312Z,18.87
2017-10-26T10:40:12.514Z,16.70
2017-10-26T10:42:41.486Z,18.45
2017-10-26T10:45:09.712Z,19.80
2017-10-26T10:47:37.885Z,19.48
2017-10-26T10:50:06.769Z,19.12
2017-10-26T10:52:34.944Z,18.75
2017-10-26T10:55:03.231Z,17.02
2017-10-26T10:57:32.629Z,16.45
2017-10-26T11:00:06.723Z,17.80
2017-10-26T11:02:34.867Z,19.73
2017-10-26T11:05:03.065Z,19.95
2017-10-26T11:07:31.780Z,19.67
2017-10-26T11:09:59.949Z,18.35
2017-10-26T11:12:28.226Z,19.02
2017-10-26T11:14:56.580Z,20.00
2017-10-26T11:17:25.844Z,21.02
2017-10-26T11:19:55.521Z,20.08
2017-10-26T11:22:26.993Z,19.75
2017-10-26T11:24:55.887Z,20.50
2017-10-26T11:27:24.046Z,20.30
2017-10-26T11:29:51.715Z,17.20
2017-10-26T11:32:19.355Z,18.25
2017-10-26T11:34:46.996Z,16.40
2017-10-26T11:37:14.679Z,18.12
2017-10-26T11:39:42.332Z,17.00
2017-10-26T11:42:09.960Z,16.20
2017-10-26T11:44:38.361Z,17.02
2017-10-26T11:47:05.987Z,15.15
2017-10-26T11:49:34.379Z,16.50
2017-10-26T11:52:02.015Z,15.82
2017-10-26T11:54:29.662Z,15.65
2017-10-26T11:56:57.306Z,15.75
2017-10-26T11:59:24.951Z,16.40
2017-10-26T12:01:52.603Z,14.45
2017-10-26T12:04:20.223Z,13.70
2017-10-26T12:06:47.871Z,13.32
2017-10-26T12:09:15.499Z,13.75
2017-10-26T12:11:43.203Z,14.82
2017-10-26T12:14:10.843Z,14.82
2017-10-26T12:16:38.484Z,15.00
2017-10-26T12:19:06.122Z,14.30
2017-10-26T12:21:34.489Z,14.13
2017-10-26T12:24:02.860Z,13.30
2017-10-26T12:26:30.506Z,13.85
2017-10-26T12:29:04.269Z,12.77
2017-10-26T12:31:33.138Z,12.98
2017-10-26T12:34:00.749Z,11.90
2017-10-26T12:36:28.409Z,10.98
2017-10-26T12:38:56.050Z,11.85
2017-10-26T12:41:23.694Z,11.12
2017-10-26T12:43:51.330Z,12.25
2017-10-26T12:46:18.957Z,11.48
2017-10-26T12:48:46.736Z,11.45
2017-10-26T12:51:14.370Z,10.98
2017-10-26T12:53:42.027Z,12.48
2017-10-26T12:56:09.677Z,11.10
2017-10-26T12:58:37.306Z,11.05
2017-10-26T13:01:04.957Z,12.10
2017-10-26T13:03:32.587Z,11.27
2017-10-26T13:06:00.235Z,11.57
2017-10-26T13:08:27.831Z,11.25
2017-10-26T13:10:55.429Z,12.13
2017-10-26T13:13:23.022Z,12.02
2017-10-26T13:15:52.662Z,12.20
2017-10-26T13:18:20.437Z,13.25
2017-10-26T13:20:48.057Z,13.90
2017-10-26T13:23:15.689Z,13.45
2017-10-26T13:25:43.346Z,14.15
2017-10-26T13:28:10.966Z,14.65
2017-10-26T13:30:38.551Z,16.27
2017-10-26T13:33:06.190Z,14.20
2017-10-26T13:35:33.819Z,15.90
2017-10-26T13:38:01.482Z,16.45
2017-10-26T13:40:29.127Z,15.55
2017-10-26T13:42:56.866Z,17.50
2017-10-26T13:45:24.779Z,14.40
2017-10-26T13:47:52.495Z,16.35
2017-10-26T13:50:20.137Z,15.40
2017-10-26T13:52:48.287Z,16.67
2017-10-26T13:55:17.369Z,17.10
2017-10-26T13:57:45.035Z,14.25
2017-10-26T14:00:12.644Z,15.82
2017-10-26T14:02:40.276Z,14.93
2017-10-26T14:05:08.929Z,16.37
2017-10-26T14:07:36.567Z,15.45
2017-10-26T14:10:05.060Z,15.80
2017-10-26T14:12:32.748Z,15.43
2017-10-26T14:15:00.372Z,15.60
2017-10-26T14:17:27.998Z,15.25
2017-10-26T14:19:55.626Z,15.45
2017-10-26T14:22:23.337Z,13.77
2017-10-26T14:24:50.958Z,14.30
2017-10-26T14:27:18.579Z,15.20
2017-10-26T14:29:46.222Z,15.23
2017-10-26T14:32:13.852Z,15.93
2017-10-26T14:34:41.528Z,16.08
2017-10-26T14:37:09.177Z,20.73
2017-10-26T14:39:36.814Z,27.55
2017-10-26T14:42:04.410Z,20.90
2017-10-26T14:44:32.036Z,19.12
2017-10-26T14:47:03.371Z,18.62
2017-10-26T14:49:31.774Z,17.95
2017-10-26T14:52:00.649Z,16.00
2017-10-26T14:54:28.358Z,19.85
2017-10-26T14:56:56.028Z,17.75
2017-10-26T14:59:23.667Z,19.75
2017-10-26T15:01:51.415Z,19.65
2017-10-26T15:04:19.294Z,21.92
2017-10-26T15:06:47.159Z,22.27
2017-10-26T15:09:15.942Z,19.90
2017-10-26T15:11:44.820Z,18.33
2017-10-26T15:14:12.513Z,22.55
2017-10-26T15:16:40.279Z,73.87
2017-10-26T15:19:21.411Z,38.60
2017-10-26T15:21:49.861Z,168.40
2017-10-26T15:24:18.662Z,84.97
2017-10-26T15:26:46.423Z,73.57
2017-10-26T15:29:14.619Z,22.42
2017-10-26T15:31:43.503Z,20.83
2017-10-26T15:34:12.806Z,28.50
2017-10-26T15:36:41.328Z,23.42
2017-10-26T15:39:11.537Z,21.17
2017-10-26T15:41:46.595Z,21.60
2017-10-26T15:44:14.765Z,25.35
2017-10-26T15:46:43.419Z,31.35
2017-10-26T15:49:12.644Z,20.45
2017-10-26T15:51:40.730Z,78.18
2017-10-26T15:54:08.841Z,24.25
2017-10-26T15:56:37.312Z,115.78
2017-10-26T15:59:05.023Z,76.90
2017-10-26T16:01:32.775Z,119.35
2017-10-26T16:04:08.055Z,54.67
2017-10-26T16:06:35.733Z,44.75
2017-10-26T16:09:04.275Z,67.12
2017-10-26T16:11:31.940Z,51.78
2017-10-26T16:13:59.622Z,40.35
2017-10-26T16:16:27.277Z,23.67
2017-10-26T16:18:54.954Z,21.10
2017-10-26T16:21:22.583Z,18.00
2017-10-26T16:23:50.238Z,27.17
2017-10-26T16:26:21.024Z,27.90
2017-10-26T16:28:48.653Z,24.25
2017-10-26T16:31:17.382Z,49.58
2017-10-26T16:33:47.301Z,53.38
2017-10-26T16:36:15.143Z,37.60
2017-10-26T16:38:51.389Z,32.60
2017-10-26T16:41:21.024Z,26.62
2017-10-26T16:43:48.685Z,21.00
2017-10-26T16:46:23.690Z,27.75
2017-10-26T16:48:51.350Z,22.23
2017-10-26T16:51:20.526Z,38.42
2017-10-26T16:53:48.224Z,30.58
2017-10-26T16:56:16.238Z,31.48
2017-10-26T16:58:44.253Z,53.33
2017-10-26T17:01:13.075Z,50.30
2017-10-26T17:03:40.939Z,113.35
2017-10-26T17:06:09.399Z,152.38
2017-10-26T17:08:37.290Z,35.60
2017-10-26T17:11:05.750Z,78.32
2017-10-26T17:13:33.492Z,70.70
2017-10-26T17:16:01.228Z,173.57
2017-10-26T17:18:28.958Z,69.78
2017-10-26T17:20:56.651Z,35.33
2017-10-26T17:23:24.710Z,34.28
2017-10-26T17:25:52.636Z,98.20
2017-10-26T17:28:20.741Z,42.47
2017-10-26T17:30:48.535Z,32.28
2017-10-26T17:33:21.075Z,55.65
2017-10-26T17:35:49.059Z,34.08
2017-10-26T17:38:21.197Z,37.50
2017-10-26T17:40:49.054Z,32.53
2017-10-26T17:43:17.682Z,32.78
2017-10-26T17:45:45.527Z,27.90
2017-10-26T17:48:16.731Z,26.45
2017-10-26T17:50:49.558Z,26.42
2017-10-26T17:53:17.274Z,22.27
2017-10-26T17:55:45.165Z,21.98
2017-10-26T17:58:12.966Z,27.00
2017-10-26T18:00:41.825Z,24.95
2017-10-26T18:03:09.538Z,27.70
2017-10-26T18:05:37.449Z,24.02
2017-10-26T18:08:09.776Z,22.65
2017-10-26T18:10:37.504Z,23.67
2017-10-26T18:13:05.282Z,23.98
2017-10-26T18:15:33.177Z,26.65
2017-10-26T18:18:01.060Z,23.87
2017-10-26T18:20:29.628Z,24.00
2017-10-26T18:23:01.769Z,24.58
2017-10-26T18:25:29.822Z,28.17
2017-10-26T18:27:58.044Z,26.08
2017-10-26T18:30:26.262Z,24.05
2017-10-26T18:32:54.334Z,25.62
2017-10-26T18:35:23.011Z,28.98
2017-10-26T18:37:51.090Z,21.20
2017-10-26T18:40:18.748Z,22.65
2017-10-26T18:42:47.051Z,26.00
2017-10-26T18:45:14.772Z,22.70
2017-10-26T18:47:42.732Z,20.80
2017-10-26T18:50:10.316Z,23.33
2017-10-26T18:52:40.841Z,21.37
2017-10-26T18:55:08.438Z,25.08
2017-10-26T18:57:36.055Z,30.80
2017-10-26T19:00:05.643Z,23.58
2017-10-26T19:02:33.330Z,26.83
2017-10-26T19:05:00.972Z,23.60
2017-10-26T19:07:28.594Z,22.23
2017-10-26T19:09:56.168Z,22.67
2017-10-26T19:12:24.884Z,25.73
2017-10-26T19:14:52.712Z,22.55
2017-10-26T19:17:20.544Z,21.37
2017-10-26T19:19:48.249Z,20.20
2017-10-26T19:22:17.658Z,21.02
2017-10-26T19:24:45.359Z,22.33
2017-10-26T19:27:13.280Z,19.17
2017-10-26T19:29:41.752Z,22.75
2017-10-26T19:32:10.822Z,21.30
2017-10-26T19:34:39.040Z,34.80
2017-10-26T19:37:06.910Z,19.55
2017-10-26T19:39:36.047Z,19.73
2017-10-26T19:42:04.443Z,20.40
2017-10-26T19:44:32.552Z,25.37
2017-10-26T19:47:01.298Z,16.98
2017-10-26T19:49:29.449Z,17.33
2017-10-26T19:51:57.699Z,22.25
2017-10-26T19:54:25.709Z,22.92
2017-10-26T19:56:54.044Z,31.15
2017-10-26T19:59:21.797Z,21.17
2017-10-26T20:01:50.314Z,18.90
2017-10-26T20:04:18.246Z,21.62
2017-10-26T20:06:46.110Z,22.92
2017-10-26T20:09:13.746Z,19.58
2017-10-26T20:11:42.519Z,18.35
2017-10-26T20:14:10.500Z,17.15
2017-10-26T20:16:40.662Z,18.77
2017-10-26T20:19:08.359Z,16.87
2017-10-26T20:21:36.333Z,23.73
2017-10-26T20:24:04.203Z,16.50
2017-10-26T20:26:32.930Z,15.82
2017-10-26T20:29:00.791Z,18.85
2017-10-26T20:31:28.745Z,17.35
2017-10-26T20:33:57.840Z,15.85
2017-10-26T20:36:25.970Z,17.75
2017-10-26T20:38:53.717Z,18.20
2017-10-26T20:41:22.171Z,16.83
2017-10-26T20:43:49.875Z,16.02
2017-10-26T20:46:18.848Z,16.98
2017-10-26T20:48:47.247Z,17.67
2017-10-26T20:51:22.409Z,16.60
2017-10-26T20:54:10.235Z,16.75
2017-10-26T20:56:43.417Z,18.00
2017-10-26T20:59:16.834Z,17.80
2017-10-26T21:01:50.100Z,17.40
2017-10-26T21:04:23.670Z,18.08
2017-10-26T21:06:51.445Z,18.08
2017-10-26T21:09:25.054Z,16.55
2017-10-26T21:11:58.259Z,17.60
2017-10-26T21:14:28.794Z,17.40
2017-10-26T21:16:56.532Z,18.95
2017-10-26T21:19:24.282Z,17.17
2017-10-26T21:21:52.127Z,17.55
2017-10-26T21:24:19.827Z,17.30
2017-10-26T21:26:47.501Z,15.95
2017-10-26T21:29:15.206Z,16.62
2017-10-26T21:31:43.114Z,18.45
2017-10-26T21:34:11.627Z,16.27
2017-10-26T21:36:39.313Z,16.60
2017-10-26T21:39:07.067Z,19.27
2017-10-26T21:41:34.803Z,17.30
2017-10-26T21:44:03.967Z,18.70
2017-10-26T21:46:31.753Z,17.92
2017-10-26T21:48:59.493Z,17.20
2017-10-26T21:51:27.183Z,18.75
2017-10-26T21:53:54.860Z,18.60
2017-10-26T21:56:23.079Z,17.98
2017-10-26T21:58:50.788Z,19.83
2017-10-26T22:01:18.409Z,20.00
2017-10-26T22:03:46.075Z,20.65
2017-10-26T22:06:13.755Z,19.48
2017-10-26T22:08:41.503Z,18.75
2017-10-26T22:11:09.224Z,18.65
2017-10-26T22:13:37.568Z,17.85
2017-10-26T22:16:05.180Z,19.87
2017-10-26T22:18:32.846Z,18.55
2017-10-26T22:21:00.515Z,22.20
2017-10-26T22:23:28.189Z,21.50
2017-10-26T22:25:55.861Z,21.62
2017-10-26T22:28:23.587Z,19.83
2017-10-26T22:30:51.303Z,20.52
2017-10-26T22:33:19.018Z,20.08
2017-10-26T22:35:46.715Z,21.17
2017-10-26T22:38:14.427Z,20.40
2017-10-26T22:40:42.044Z,20.65
2017-10-26T22:43:10.558Z,16.55
2017-10-26T22:45:38.256Z,17.12
2017-10-26T22:48:05.981Z,16.65
2017-10-26T22:50:33.691Z,19.08
2017-10-26T22:53:01.352Z,20.27
2017-10-26T22:55:29.097Z,17.58
2017-10-26T22:57:56.766Z,18.75
2017-10-26T23:00:24.449Z,18.30
2017-10-26T23:02:52.103Z,16.98
2017-10-26T23:05:19.771Z,17.12
2017-10-26T23:07:47.662Z,19.42
2017-10-26T23:10:15.308Z,16.52
2017-10-26T23:12:43.708Z,15.07
2017-10-26T23:15:11.456Z,27.17
2017-10-26T23:17:39.101Z,31.90
2017-10-26T23:20:06.754Z,18.92
2017-10-26T23:22:34.448Z,21.85
2017-10-26T23:25:02.211Z,18.52
2017-10-26T23:27:29.865Z,18.77
2017-10-26T23:29:57.543Z,16.23
2017-10-26T23:32:25.246Z,15.43
2017-10-26T23:34:52.895Z,17.87
2017-10-26T23:37:21.315Z,16.85
2017-10-26T23:39:48.971Z,20.77
2017-10-26T23:42:16.665Z,17.40
2017-10-26T23:44:44.299Z,15.85
2017-10-26T23:47:11.896Z,17.30
2017-10-26T23:49:39.508Z,16.25
2017-10-26T23:52:07.234Z,20.85
2017-10-26T23:54:34.982Z,17.08
2017-10-26T23:57:02.698Z,17.05
2017-10-26T23:59:30.438Z,18.30
